Terminal Aerodrome Forecast
Issued by NWS

Current Version | Previous Version | Text Only | Print | Product List | Glossary On
Versions: 1 2 3 4 5 6 7 8 9 10 11 12 13 14 15 16
000 FTUS42 KRAH 170540 TAFRWI TAF KRWI 170540Z 1706/1806 03005KT P6SM SKC FM171400 04012G20KT P6SM SCT030 FM171800 03010KT P6SM SCT250 AMD NOT SKED=

USA.gov is the U.S. government's official web portal to all federal, state and local government web resources and services.